Time;durP1;ratioP1;P1;durP2;ratioP2;P2;SDS_P1;SDS_P2;PMS_P1;PMS_P2;Temp;Humidity;BMP_temperature;BMP_pressure;BME280_temperature;BME280_humidity;BME280_pressure;Samples;Min_cycle;Max_cycle;Signal;HPM_P1;HPM_P2
2021/06/13 00:00:00;;;;;;;3.23;1.80;;;17.20;92.00;;;;;;5095321;28;20606;-77
2021/06/13 00:02:26;;;;;;;1.90;1.37;;;17.10;92.10;;;;;;5095487;28;20592;-77
2021/06/13 00:04:52;;;;;;;7.20;2.00;;;17.10;92.30;;;;;;5078721;28;20588;-77
2021/06/13 00:07:18;;;;;;;5.77;2.40;;;17.10;92.30;;;;;;5095499;28;20171;-77
2021/06/13 00:09:43;;;;;;;2.50;1.97;;;17.00;92.50;;;;;;5098430;28;20171;-77
2021/06/13 00:12:11;;;;;;;4.10;2.30;;;17.00;92.60;;;;;;5118536;28;20206;-77
2021/06/13 00:14:37;;;;;;;3.47;2.23;;;17.00;92.70;;;;;;5095063;28;20189;-77
2021/06/13 00:17:03;;;;;;;2.67;2.20;;;16.90;92.80;;;;;;5094874;28;20569;-77
2021/06/13 00:19:28;;;;;;;3.30;2.37;;;16.90;92.90;;;;;;5095168;28;20531;-78
2021/06/13 00:21:54;;;;;;;7.50;2.73;;;16.90;93.10;;;;;;5113260;28;20605;-78
2021/06/13 00:24:21;;;;;;;2.87;2.40;;;16.80;93.30;;;;;;5078350;28;20576;-77
2021/06/13 00:26:47;;;;;;;4.90;2.10;;;16.80;93.40;;;;;;5113143;28;20224;-77
2021/06/13 00:29:12;;;;;;;5.13;2.30;;;16.80;93.50;;;;;;5113274;28;20926;-78
2021/06/13 00:31:38;;;;;;;4.93;2.77;;;16.70;93.60;;;;;;5113025;28;20203;-78
2021/06/13 00:34:04;;;;;;;4.33;3.10;;;16.70;93.80;;;;;;5094723;28;20159;-77
2021/06/13 00:36:29;;;;;;;3.30;2.50;;;16.70;93.90;;;;;;5112535;28;20528;-77
2021/06/13 00:38:56;;;;;;;3.33;2.93;;;16.60;94.00;;;;;;5094832;28;20205;-77
2021/06/13 00:41:23;;;;;;;4.47;2.93;;;16.60;94.20;;;;;;5112506;28;21022;-77
2021/06/13 00:43:50;;;;;;;4.47;2.87;;;16.60;94.40;;;;;;5122282;27;20589;-77
2021/06/13 00:46:16;;;;;;;3.40;3.03;;;16.60;94.50;;;;;;5087900;28;20596;-77
2021/06/13 00:48:43;;;;;;;3.30;2.90;;;16.50;94.70;;;;;;5087158;27;20584;-77
2021/06/13 00:51:09;;;;;;;3.43;2.93;;;16.50;94.70;;;;;;5094523;28;20632;-77
2021/06/13 00:53:35;;;;;;;5.17;2.87;;;16.50;94.80;;;;;;5112700;28;20610;-78
2021/06/13 00:56:07;;;;;;;4.80;2.95;;;16.50;95.00;;;;;;5094574;28;20533;-78
2021/06/13 00:58:33;;;;;;;3.43;2.80;;;16.40;95.00;;;;;;5112741;28;20712;-78
2021/06/13 01:01:00;;;;;;;2.88;2.58;;;16.40;95.50;;;;;;5112571;28;20605;-78
2021/06/13 01:03:29;;;;;;;4.93;2.80;;;16.40;95.30;;;;;;5094442;28;20688;-77
2021/06/13 01:05:56;;;;;;;4.93;3.35;;;16.30;95.40;;;;;;5077436;28;20282;-78
2021/06/13 01:09:01;;;;;;;4.30;3.57;;;16.30;95.50;;;;;;5094337;28;20175;-78
2021/06/13 01:11:54;;;;;;;4.90;2.80;;;16.30;96.10;;;;;;5094426;28;20619;-77
2021/06/13 01:14:31;;;;;;;4.70;2.73;;;16.20;96.00;;;;;;5112879;28;20569;-77
2021/06/13 01:17:11;;;;;;;4.30;3.25;;;16.20;96.20;;;;;;5094230;28;21222;-78
2021/06/13 01:20:08;;;;;;;3.88;3.13;;;16.20;96.50;;;;;;5112577;28;20162;-78
2021/06/13 01:22:47;;;;;;;4.07;3.45;;;16.10;96.50;;;;;;5113706;28;20213;-78
2021/06/13 01:25:50;;;;;;;3.80;2.65;;;16.10;96.30;;;;;;5113710;28;20586;-78
2021/06/13 01:28:41;;;;;;;3.78;2.80;;;16.10;96.80;;;;;;5112143;28;20159;-78
2021/06/13 01:31:08;;;;;;;4.95;3.55;;;16.10;96.70;;;;;;5094033;28;20290;-77
2021/06/13 01:33:35;;;;;;;6.50;3.50;;;16.00;96.60;;;;;;5094205;28;20253;-78
2021/06/13 01:36:04;;;;;;;4.35;2.97;;;16.00;96.80;;;;;;5077536;28;20167;-78
2021/06/13 01:38:32;;;;;;;2.92;2.42;;;15.90;96.90;;;;;;5094060;28;20199;-78
2021/06/13 01:41:08;;;;;;;3.75;3.42;;;15.90;97.10;;;;;;5076857;28;20229;-78
2021/06/13 01:43:35;;;;;;;4.32;2.88;;;15.80;97.30;;;;;;5105550;22;20227;-80
2021/06/13 01:46:03;;;;;;;4.40;2.95;;;15.80;97.40;;;;;;5045165;28;20174;-80
2021/06/13 01:48:32;;;;;;;5.95;3.50;;;15.80;97.50;;;;;;5056788;28;20543;-80
2021/06/13 01:51:00;;;;;;;4.63;4.22;;;15.70;97.60;;;;;;5057618;28;20378;-81
2021/06/13 01:53:28;;;;;;;3.75;3.45;;;15.70;97.80;;;;;;5057763;28;20219;-81
2021/06/13 01:55:54;;;;;;;5.22;3.55;;;15.70;97.90;;;;;;5058468;28;20171;-81
2021/06/13 01:58:23;;;;;;;7.90;4.47;;;15.60;98.10;;;;;;5047933;28;20271;-80
2021/06/13 02:01:21;;;;;;;5.03;3.28;;;15.60;98.20;;;;;;5053496;28;20183;-81
2021/06/13 02:03:54;;;;;;;6.13;3.30;;;15.60;98.30;;;;;;5057704;28;20180;-80
2021/06/13 02:06:36;;;;;;;3.75;3.42;;;15.50;98.70;;;;;;5057744;28;20174;-80
2021/06/13 02:09:04;;;;;;;4.10;3.30;;;15.50;98.70;;;;;;5061228;28;20609;-80
2021/06/13 02:11:33;;;;;;;5.85;3.60;;;15.50;98.80;;;;;;5056927;28;20212;-81
2021/06/13 02:14:02;;;;;;;5.50;4.47;;;15.50;99.00;;;;;;5074910;28;20184;-80
2021/06/13 02:16:36;;;;;;;3.33;3.03;;;15.40;99.20;;;;;;5040153;28;20640;-80
2021/06/13 02:19:04;;;;;;;5.32;3.03;;;15.40;99.20;;;;;;5074718;28;20168;-80
2021/06/13 02:21:34;;;;;;;4.80;3.60;;;15.30;99.30;;;;;;5073766;28;20530;-80
2021/06/13 02:24:00;;;;;;;4.65;3.15;;;15.30;99.60;;;;;;5056857;28;20203;-80
2021/06/13 02:26:29;;;;;;;7.82;4.00;;;15.30;99.70;;;;;;5056591;28;20164;-80
2021/06/13 02:28:58;;;;;;;5.50;4.40;;;15.30;99.90;;;;;;5056664;28;20176;-80
2021/06/13 02:31:30;;;;;;;5.60;3.60;;;15.30;99.90;;;;;;5074803;28;20200;-80
2021/06/13 02:33:58;;;;;;;6.10;3.92;;;15.20;99.90;;;;;;5056842;28;20180;-80
2021/06/13 02:36:26;;;;;;;4.47;3.47;;;15.20;99.90;;;;;;5056269;28;20590;-80
2021/06/13 02:39:00;;;;;;;10.85;5.18;;;15.20;99.90;;;;;;5040072;28;20190;-80
2021/06/13 02:41:27;;;;;;;4.20;3.25;;;15.10;99.90;;;;;;5056808;28;20176;-79
2021/06/13 02:43:54;;;;;;;4.35;2.88;;;15.10;99.90;;;;;;5058343;28;20200;-80
2021/06/13 02:46:24;;;;;;;4.57;3.20;;;15.10;99.90;;;;;;5081159;28;20165;-79
2021/06/13 02:48:52;;;;;;;6.57;3.95;;;15.10;99.90;;;;;;5057435;28;20180;-79
2021/06/13 02:51:23;;;;;;;6.72;4.68;;;15.10;99.90;;;;;;5074176;28;20200;-79
2021/06/13 02:53:54;;;;;;;8.60;4.10;;;15.10;99.90;;;;;;5056420;28;20275;-79
2021/06/13 02:56:34;;;;;;;4.32;3.92;;;15.00;99.90;;;;;;5073874;28;20247;-79
2021/06/13 02:59:11;;;;;;;4.90;4.05;;;15.00;99.90;;;;;;5056200;28;20168;-79
2021/06/13 03:01:45;;;;;;;4.22;3.70;;;15.00;99.90;;;;;;5074240;28;20581;-79
2021/06/13 03:04:15;;;;;;;6.60;4.38;;;14.90;99.90;;;;;;5056136;28;20206;-79
2021/06/13 03:06:41;;;;;;;7.70;4.50;;;14.90;99.90;;;;;;5055824;28;20210;-79
2021/06/13 03:09:09;;;;;;;6.90;4.47;;;14.90;99.90;;;;;;5056006;28;20185;-79
2021/06/13 03:11:36;;;;;;;5.80;4.90;;;14.90;99.90;;;;;;5056048;28;20282;-80
2021/06/13 03:14:03;;;;;;;5.85;3.78;;;14.80;99.90;;;;;;5073948;28;20201;-79
2021/06/13 03:16:30;;;;;;;6.65;4.25;;;14.80;99.90;;;;;;5063621;28;20180;-79
2021/06/13 03:18:56;;;;;;;7.88;5.13;;;14.80;99.90;;;;;;5056354;28;20242;-79
2021/06/13 03:21:25;;;;;;;4.70;4.30;;;14.80;99.90;;;;;;5093956;28;20176;-80
2021/06/13 03:23:52;;;;;;;7.93;4.53;;;14.80;99.90;;;;;;5073477;28;20216;-80
2021/06/13 03:26:19;;;;;;;8.80;5.18;;;14.80;99.90;;;;;;5089136;28;20160;-80
2021/06/13 03:28:47;;;;;;;5.45;4.35;;;14.80;99.90;;;;;;5055660;28;20183;-79
2021/06/13 03:31:15;;;;;;;5.90;4.40;;;14.80;99.90;;;;;;5072087;28;20246;-79
2021/06/13 03:33:42;;;;;;;5.65;4.75;;;14.80;99.90;;;;;;5038933;28;20283;-79
2021/06/13 03:36:10;;;;;;;8.10;5.07;;;14.80;99.90;;;;;;5055645;28;20248;-79
2021/06/13 03:38:37;;;;;;;6.72;4.90;;;14.70;99.90;;;;;;5055199;28;20520;-79
2021/06/13 03:41:06;;;;;;;7.45;4.68;;;14.70;99.90;;;;;;5055625;28;20171;-79
2021/06/13 03:43:32;;;;;;;5.90;4.15;;;14.70;99.90;;;;;;5073196;28;20273;-79
2021/06/13 03:45:58;;;;;;;5.77;4.57;;;14.70;99.90;;;;;;5073606;28;20176;-79
2021/06/13 03:48:25;;;;;;;7.47;4.73;;;14.70;99.90;;;;;;5055011;28;20628;-80
2021/06/13 03:50:51;;;;;;;6.60;5.13;;;14.70;99.90;;;;;;5073697;28;20570;-79
2021/06/13 03:53:20;;;;;;;8.15;5.25;;;14.70;99.90;;;;;;5073514;28;20669;-79
2021/06/13 03:55:46;;;;;;;8.25;6.00;;;14.70;99.90;;;;;;5072529;28;20173;-79
2021/06/13 03:58:13;;;;;;;9.93;5.65;;;14.80;99.90;;;;;;5076365;28;20222;-80
2021/06/13 04:00:43;;;;;;;8.07;7.00;;;14.80;99.90;;;;;;5055333;28;20266;-79
2021/06/13 04:03:09;;;;;;;13.70;5.18;;;14.80;99.90;;;;;;5072843;28;20192;-79
2021/06/13 04:05:40;;;;;;;8.77;5.80;;;14.80;99.90;;;;;;5072951;28;20206;-80
2021/06/13 04:08:09;;;;;;;8.32;5.28;;;14.80;99.90;;;;;;5054455;28;20194;-80
2021/06/13 04:10:36;;;;;;;8.50;5.18;;;14.80;99.90;;;;;;5072139;28;20172;-79
2021/06/13 04:13:03;;;;;;;6.65;5.15;;;14.90;99.90;;;;;;5038226;28;20777;-80
2021/06/13 04:15:30;;;;;;;6.35;5.13;;;14.80;99.90;;;;;;5054625;28;20176;-80
2021/06/13 04:17:57;;;;;;;6.55;4.57;;;14.90;99.90;;;;;;5072249;28;20168;-80
2021/06/13 04:20:24;;;;;;;6.72;5.43;;;14.90;99.90;;;;;;5088237;28;20156;-79
2021/06/13 04:22:50;;;;;;;7.65;5.75;;;14.90;99.90;;;;;;5072752;28;20693;-79
2021/06/13 04:25:17;;;;;;;8.50;5.28;;;15.00;99.90;;;;;;5072514;28;20539;-79
2021/06/13 04:27:45;;;;;;;10.40;5.88;;;15.00;99.90;;;;;;5054410;28;20221;-80
2021/06/13 04:30:12;;;;;;;8.43;4.72;;;15.10;99.90;;;;;;5054719;28;20175;-80
2021/06/13 04:32:38;;;;;;;6.47;4.90;;;15.20;99.90;;;;;;5072820;28;20212;-80
2021/06/13 04:35:05;;;;;;;8.87;5.60;;;15.30;99.90;;;;;;5076253;28;20619;-80
2021/06/13 04:37:30;;;;;;;5.68;4.93;;;15.40;99.90;;;;;;5072261;28;20563;-80
2021/06/13 04:39:56;;;;;;;7.07;4.50;;;15.40;99.90;;;;;;5054446;28;20583;-80
2021/06/13 04:42:22;;;;;;;6.43;4.90;;;15.50;99.90;;;;;;5054422;28;20204;-80
2021/06/13 04:44:48;;;;;;;6.47;5.03;;;15.60;99.90;;;;;;5072603;28;20176;-80
2021/06/13 04:47:15;;;;;;;8.40;5.03;;;15.60;99.90;;;;;;5053930;28;20271;-81
2021/06/13 04:49:43;;;;;;;7.65;5.03;;;15.80;99.90;;;;;;5055893;28;20195;-80
2021/06/13 04:52:14;;;;;;;8.85;4.85;;;15.80;99.90;;;;;;5071378;28;20203;-79
2021/06/13 04:54:57;;;;;;;7.40;5.47;;;15.90;99.90;;;;;;5087994;28;20208;-79
2021/06/13 04:57:33;;;;;;;5.93;4.50;;;16.00;99.90;;;;;;5054708;28;20239;-79
2021/06/13 04:59:59;;;;;;;7.68;5.50;;;16.10;99.90;;;;;;5046895;28;20952;-80
2021/06/13 05:02:25;;;;;;;6.03;3.73;;;16.30;99.90;;;;;;5054351;28;20192;-80
2021/06/13 05:04:54;;;;;;;9.47;4.70;;;16.60;99.90;;;;;;5072487;28;20200;-80
2021/06/13 05:07:20;;;;;;;7.87;4.40;;;16.70;99.90;;;;;;5054392;28;20574;-81
2021/06/13 05:09:46;;;;;;;10.77;5.37;;;16.90;99.90;;;;;;5077546;28;20574;-81
2021/06/13 05:12:12;;;;;;;6.03;4.63;;;17.20;99.90;;;;;;5058126;28;20964;-80
2021/06/13 05:14:38;;;;;;;10.17;6.10;;;17.50;99.90;;;;;;5071994;28;20574;-80
2021/06/13 05:17:05;;;;;;;7.70;4.50;;;17.80;99.90;;;;;;5071620;28;20559;-80
2021/06/13 05:19:30;;;;;;;7.87;5.00;;;18.10;99.90;;;;;;5053987;28;21022;-80
2021/06/13 05:21:56;;;;;;;7.20;5.17;;;18.30;99.90;;;;;;5052916;28;20603;-80
2021/06/13 05:24:22;;;;;;;7.40;4.93;;;18.50;99.90;;;;;;5054251;28;20184;-80
2021/06/13 05:26:47;;;;;;;5.47;4.30;;;18.70;99.90;;;;;;5071401;28;20168;-81
2021/06/13 05:29:13;;;;;;;7.70;6.83;;;18.80;99.90;;;;;;5071823;28;20251;-81
2021/06/13 05:31:39;;;;;;;5.87;3.73;;;18.90;99.90;;;;;;5071927;28;20200;-81
2021/06/13 05:34:05;;;;;;;6.27;4.93;;;19.10;99.90;;;;;;5071725;28;20196;-81
2021/06/13 05:36:30;;;;;;;7.73;4.50;;;19.20;99.90;;;;;;5053244;28;20176;-81
2021/06/13 05:38:56;;;;;;;11.67;4.30;;;19.30;99.90;;;;;;5053782;28;20175;-81
2021/06/13 05:41:22;;;;;;;8.07;4.17;;;19.40;99.90;;;;;;5071831;28;20581;-81
2021/06/13 05:43:48;;;;;;;7.17;3.60;;;19.70;99.90;;;;;;5053661;28;20642;-81
2021/06/13 05:46:14;;;;;;;9.80;4.50;;;19.90;99.90;;;;;;5054446;28;20184;-81
2021/06/13 05:48:40;;;;;;;6.30;3.67;;;20.30;99.90;;;;;;5074911;28;20270;-81
2021/06/13 05:51:06;;;;;;;6.60;4.07;;;20.80;99.90;;;;;;5053729;28;21027;-81
2021/06/13 05:53:32;;;;;;;7.50;4.17;;;21.30;99.90;;;;;;5071413;28;20184;-81
2021/06/13 05:55:58;;;;;;;7.97;3.90;;;21.90;99.90;;;;;;5053561;28;20605;-81
2021/06/13 05:58:24;;;;;;;6.40;3.97;;;22.70;99.90;;;;;;5071526;28;20587;-81
2021/06/13 06:00:49;;;;;;;6.10;3.10;;;23.60;99.90;;;;;;5071926;28;21135;-80
2021/06/13 06:03:15;;;;;;;7.90;3.83;;;24.60;99.90;;;;;;5071296;28;21176;-80
2021/06/13 06:05:41;;;;;;;6.30;2.93;;;25.50;99.90;;;;;;5036761;28;20203;-80
2021/06/13 06:08:07;;;;;;;7.60;2.47;;;26.50;99.90;;;;;;5052912;28;20183;-80
2021/06/13 06:10:34;;;;;;;7.27;4.00;;;27.30;97.90;;;;;;5071400;28;20171;-81
2021/06/13 06:13:03;;;;;;;5.17;2.90;;;28.10;95.60;;;;;;5071033;28;20203;-81
2021/06/13 06:15:34;;;;;;;4.83;3.10;;;28.80;94.20;;;;;;5053500;28;20586;-81
2021/06/13 06:18:00;;;;;;;3.90;2.40;;;29.60;93.50;;;;;;5052917;28;20567;-81
2021/06/13 06:20:28;;;;;;;4.40;2.90;;;30.30;91.80;;;;;;5053278;28;20570;-81
2021/06/13 06:22:54;;;;;;;4.87;2.40;;;31.00;89.50;;;;;;5036865;28;20662;-82
2021/06/13 06:25:22;;;;;;;4.37;2.60;;;31.60;86.60;;;;;;5076398;28;20575;-81
2021/06/13 06:27:50;;;;;;;4.67;2.77;;;32.10;82.20;;;;;;5034912;28;20733;-83
2021/06/13 06:30:17;;;;;;;6.40;3.03;;;32.20;71.40;;;;;;5071499;28;20940;-83
2021/06/13 06:32:42;;;;;;;3.47;2.50;;;32.40;73.00;;;;;;5087365;28;20638;-83
2021/06/13 06:35:11;;;;;;;5.67;2.40;;;32.80;71.90;;;;;;5075340;28;20584;-83
2021/06/13 06:37:38;;;;;;;5.00;2.33;;;33.30;68.90;;;;;;5056802;28;20159;-83
2021/06/13 06:40:06;;;;;;;3.50;2.00;;;33.70;66.50;;;;;;5040520;28;20564;-83
2021/06/13 06:42:33;;;;;;;3.80;2.07;;;34.00;64.80;;;;;;5025287;28;21045;-83
2021/06/13 06:44:59;;;;;;;3.53;2.37;;;34.40;63.10;;;;;;5070482;28;20586;-83
2021/06/13 06:47:27;;;;;;;3.57;2.10;;;34.60;59.00;;;;;;5052189;28;20626;-83
2021/06/13 06:49:53;;;;;;;4.90;2.83;;;34.90;58.60;;;;;;5039298;28;20597;-83
2021/06/13 06:52:19;;;;;;;4.23;2.03;;;35.30;57.00;;;;;;5055142;28;20748;-83
2021/06/13 06:54:45;;;;;;;3.17;1.53;;;35.60;56.00;;;;;;5020777;28;20184;-83
2021/06/13 06:57:10;;;;;;;3.20;1.67;;;35.80;54.80;;;;;;5062147;28;20173;-81
2021/06/13 06:59:37;;;;;;;3.53;1.40;;;36.10;54.30;;;;;;5045065;28;20625;-82
2021/06/13 07:02:04;;;;;;;3.37;1.67;;;36.20;53.00;;;;;;5082732;28;20205;-81
2021/06/13 07:04:30;;;;;;;3.87;1.53;;;36.40;52.40;;;;;;5035675;28;20594;-81
2021/06/13 07:06:56;;;;;;;5.30;1.53;;;36.80;51.10;;;;;;5074911;28;20551;-81
2021/06/13 07:09:25;;;;;;;2.80;1.63;;;36.90;50.00;;;;;;5078381;28;20576;-82
2021/06/13 07:11:51;;;;;;;3.10;1.47;;;37.10;49.20;;;;;;5041782;28;20567;-84
2021/06/13 07:14:17;;;;;;;2.60;1.60;;;37.00;49.00;;;;;;5054160;28;20168;-85
2021/06/13 07:16:42;;;;;;;4.80;1.33;;;36.70;47.30;;;;;;5036011;28;20203;-85
2021/06/13 07:19:09;;;;;;;2.97;2.17;;;36.60;47.10;;;;;;5060277;28;20168;-85
2021/06/13 07:21:35;;;;;;;3.17;1.80;;;36.30;46.20;;;;;;5074033;28;20203;-84
2021/06/13 07:24:00;;;;;;;2.33;1.70;;;36.00;45.70;;;;;;5073713;28;20976;-85
2021/06/13 07:26:26;;;;;;;5.10;2.10;;;36.00;45.50;;;;;;5073990;28;20251;-84
2021/06/13 07:28:52;;;;;;;3.00;2.13;;;36.10;45.80;;;;;;5039347;28;20844;-84
2021/06/13 07:31:18;;;;;;;3.70;1.80;;;36.20;46.00;;;;;;5074042;28;20656;-85
2021/06/13 07:33:44;;;;;;;3.20;1.70;;;36.50;44.90;;;;;;5073636;28;20203;-84
2021/06/13 07:36:10;;;;;;;3.87;1.50;;;36.60;44.30;;;;;;5074391;28;20575;-84
2021/06/13 07:38:35;;;;;;;3.83;2.23;;;36.80;44.20;;;;;;5059041;28;20523;-85
2021/06/13 07:41:01;;;;;;;4.00;1.77;;;37.00;44.10;;;;;;5055647;28;20273;-84
2021/06/13 07:43:27;;;;;;;4.23;1.90;;;37.30;43.80;;;;;;5073136;28;20636;-85
2021/06/13 07:45:53;;;;;;;6.57;1.77;;;37.50;44.10;;;;;;5071314;28;20176;-85
2021/06/13 07:48:19;;;;;;;2.73;1.67;;;37.80;43.50;;;;;;5038604;28;20548;-84
2021/06/13 07:50:44;;;;;;;3.53;1.73;;;38.10;43.40;;;;;;5024743;28;20179;-84
2021/06/13 07:53:11;;;;;;;2.63;1.33;;;38.40;42.70;;;;;;5073365;28;21057;-85
2021/06/13 07:55:38;;;;;;;2.57;1.60;;;38.70;42.60;;;;;;5074281;28;20171;-85
2021/06/13 07:58:05;;;;;;;2.63;1.50;;;38.90;41.30;;;;;;5072953;28;20589;-85
2021/06/13 08:00:31;;;;;;;3.17;1.40;;;39.10;40.60;;;;;;5055469;28;20568;-84
2021/06/13 08:02:57;;;;;;;2.10;1.30;;;39.20;40.60;;;;;;5073079;28;20637;-84
2021/06/13 08:05:27;;;;;;;3.30;1.70;;;39.30;40.80;;;;;;5055151;28;21121;-84
2021/06/13 08:07:58;;;;;;;2.63;1.60;;;39.50;39.60;;;;;;5055239;28;21162;-84
2021/06/13 08:10:26;;;;;;;3.57;1.67;;;39.60;39.10;;;;;;5073238;28;20555;-85
2021/06/13 08:12:52;;;;;;;4.73;1.83;;;39.60;38.90;;;;;;5056556;28;20676;-84
2021/06/13 08:15:19;;;;;;;3.10;1.60;;;39.60;38.30;;;;;;5059578;28;20579;-84
2021/06/13 08:17:45;;;;;;;4.37;1.73;;;39.70;37.70;;;;;;5072638;28;20634;-84
2021/06/13 08:20:12;;;;;;;2.93;1.37;;;39.70;37.70;;;;;;5072910;28;20610;-84
2021/06/13 08:22:39;;;;;;;2.77;1.57;;;39.80;37.10;;;;;;5073142;28;20642;-83
2021/06/13 08:25:06;;;;;;;2.90;1.50;;;39.80;36.70;;;;;;5054911;28;20638;-83
2021/06/13 08:27:32;;;;;;;3.20;1.93;;;39.80;36.40;;;;;;5055094;28;20579;-81
2021/06/13 08:29:58;;;;;;;2.73;1.93;;;39.80;36.50;;;;;;5063360;28;20580;-83
2021/06/13 08:32:25;;;;;;;4.30;1.40;;;39.70;35.30;;;;;;5057438;28;21229;-83
2021/06/13 08:34:50;;;;;;;2.30;1.83;;;39.70;36.10;;;;;;5072989;28;20593;-82
2021/06/13 08:37:16;;;;;;;2.90;1.60;;;39.70;35.90;;;;;;5072158;28;20571;-83
2021/06/13 08:39:42;;;;;;;2.00;1.20;;;39.50;35.20;;;;;;5072699;28;20168;-83
2021/06/13 08:42:08;;;;;;;2.57;1.30;;;39.50;35.70;;;;;;5072373;28;20290;-82
2021/06/13 08:44:34;;;;;;;3.03;1.73;;;39.50;35.70;;;;;;5054525;28;20168;-82
2021/06/13 08:47:00;;;;;;;3.70;1.60;;;39.40;34.50;;;;;;5073587;28;20168;-82
2021/06/13 08:49:26;;;;;;;3.90;2.00;;;39.00;34.50;;;;;;5073859;28;20704;-82
2021/06/13 08:51:53;;;;;;;4.03;1.83;;;38.20;32.70;;;;;;5050081;28;20201;-83
2021/06/13 08:54:20;;;;;;;4.00;1.53;;;38.40;33.90;;;;;;5080993;28;20558;-83
2021/06/13 08:56:46;;;;;;;2.83;1.83;;;38.50;34.80;;;;;;5059443;28;20575;-83
2021/06/13 08:59:13;;;;;;;4.20;1.90;;;38.80;35.00;;;;;;5065114;28;20627;-83
2021/06/13 09:01:41;;;;;;;3.20;1.60;;;39.00;34.60;;;;;;5101881;22;20311;-82
2021/06/13 09:04:08;;;;;;;2.33;1.20;;;39.20;33.50;;;;;;5057364;28;20646;-83
2021/06/13 09:06:34;;;;;;;3.63;1.37;;;39.10;34.10;;;;;;5069345;28;20586;-83
2021/06/13 09:09:00;;;;;;;3.10;1.80;;;39.10;33.50;;;;;;5094418;28;20629;-83
2021/06/13 09:11:31;;;;;;;2.63;1.80;;;39.00;33.40;;;;;;5094588;28;20763;-84
2021/06/13 09:14:15;;;;;;;2.77;1.60;;;39.00;33.00;;;;;;5094500;28;20937;-83
2021/06/13 09:16:47;;;;;;;3.90;1.57;;;39.00;32.90;;;;;;5082482;28;20582;-84
2021/06/13 09:19:13;;;;;;;4.10;1.60;;;38.90;33.10;;;;;;5112418;28;20633;-84
2021/06/13 09:21:46;;;;;;;3.27;1.70;;;39.00;33.40;;;;;;5077886;28;20671;-82
2021/06/13 09:24:28;;;;;;;2.80;1.80;;;39.10;32.90;;;;;;5095159;28;21183;-83
2021/06/13 09:27:10;;;;;;;3.80;1.93;;;39.30;32.90;;;;;;5078271;28;20568;-82
2021/06/13 09:29:52;;;;;;;3.10;1.57;;;39.30;32.60;;;;;;5077789;28;20579;-82
2021/06/13 09:32:33;;;;;;;2.30;1.23;;;39.40;33.00;;;;;;5077673;28;20692;-82
2021/06/13 09:35:43;;;;;;;3.50;1.87;;;39.30;32.60;;;;;;5069964;28;20585;-82
2021/06/13 09:38:45;;;;;;;3.27;1.83;;;39.40;32.70;;;;;;5074399;28;21164;-81
2021/06/13 09:41:56;;;;;;;3.90;1.50;;;39.50;32.60;;;;;;5062864;28;20645;-83
2021/06/13 09:45:17;;;;;;;2.27;1.37;;;39.50;32.90;;;;;;5075757;28;20590;-83
2021/06/13 09:48:02;;;;;;;5.00;1.57;;;39.70;33.00;;;;;;5073904;28;20584;-82
2021/06/13 09:50:42;;;;;;;2.53;1.47;;;39.90;33.10;;;;;;5092802;28;20586;-77
2021/06/13 09:53:33;;;;;;;2.50;1.53;;;40.00;33.30;;;;;;5073560;28;20578;-77
2021/06/13 09:56:14;;;;;;;2.80;1.60;;;40.20;32.10;;;;;;5091693;28;20569;-76
2021/06/13 09:59:01;;;;;;;2.43;1.40;;;40.40;32.00;;;;;;5039850;28;20576;-77
2021/06/13 10:01:38;;;;;;;2.27;1.30;;;40.40;31.50;;;;;;5075572;28;20720;-76
2021/06/13 10:04:05;;;;;;;4.60;1.93;;;40.50;32.30;;;;;;5091480;28;20593;-76
2021/06/13 10:06:37;;;;;;;5.30;1.70;;;40.60;31.50;;;;;;5089760;28;20585;-77
2021/06/13 10:09:21;;;;;;;2.57;1.83;;;40.60;31.10;;;;;;5093999;28;20569;-77
2021/06/13 10:12:04;;;;;;;2.83;2.23;;;40.50;30.40;;;;;;5110409;28;20621;-77
2021/06/13 10:14:29;;;;;;;4.53;2.23;;;40.50;30.80;;;;;;5095134;28;20642;-78
2021/06/13 10:16:55;;;;;;;3.33;1.53;;;40.30;30.00;;;;;;5076657;28;20578;-77
2021/06/13 10:19:23;;;;;;;4.57;1.90;;;39.90;29.60;;;;;;5077040;28;20168;-77
2021/06/13 10:21:58;;;;;;;2.80;1.40;;;39.50;29.60;;;;;;5060148;28;20270;-78
2021/06/13 10:24:26;;;;;;;3.27;1.50;;;39.20;29.80;;;;;;5077035;28;20614;-75
2021/06/13 10:26:54;;;;;;;3.50;1.80;;;39.00;30.00;;;;;;5059717;28;20577;-76
2021/06/13 10:29:24;;;;;;;2.80;1.43;;;39.00;29.80;;;;;;5076528;28;21021;-76
2021/06/13 10:31:52;;;;;;;2.50;1.57;;;38.90;29.70;;;;;;5076595;28;21104;-75
2021/06/13 10:34:21;;;;;;;5.40;1.43;;;38.90;29.90;;;;;;5076965;28;20929;-76
2021/06/13 10:36:47;;;;;;;3.47;2.10;;;38.90;30.20;;;;;;5042845;28;20613;-75
2021/06/13 10:39:19;;;;;;;2.77;1.80;;;39.00;30.00;;;;;;5076579;28;20618;-76
2021/06/13 10:44:58;;;;;;;3.77;1.70;;;38.90;30.30;;;;;;5046372;28;20612;-76
2021/06/13 10:47:30;;;;;;;3.30;2.37;;;39.00;30.00;;;;;;5076125;28;20920;-76
2021/06/13 10:49:55;;;;;;;2.23;1.60;;;38.90;30.30;;;;;;5059760;28;20673;-77
2021/06/13 10:52:25;;;;;;;3.83;1.90;;;38.80;30.80;;;;;;5078454;28;20708;-87
2021/06/13 10:54:52;;;;;;;2.30;1.67;;;38.50;30.00;;;;;;5049323;28;20582;-86
2021/06/13 10:57:25;;;;;;;4.40;2.50;;;38.10;30.00;;;;;;5061867;28;20581;-87
2021/06/13 10:59:57;;;;;;;2.23;1.53;;;37.80;30.20;;;;;;5080171;28;20597;-87
2021/06/13 11:02:50;;;;;;;3.60;1.80;;;37.50;30.80;;;;;;5078642;28;20656;-87
2021/06/13 11:05:34;;;;;;;7.20;1.90;;;37.30;31.50;;;;;;5078210;28;20566;-87
2021/06/13 11:08:03;;;;;;;4.60;1.60;;;37.10;31.00;;;;;;5076297;28;20566;-82
2021/06/13 11:10:31;;;;;;;6.47;2.50;;;36.90;31.00;;;;;;5060880;28;20969;-83
2021/06/13 11:13:10;;;;;;;4.50;2.13;;;36.70;31.60;;;;;;5078670;28;21184;-82
2021/06/13 11:15:39;;;;;;;4.63;2.40;;;36.40;31.20;;;;;;5077085;28;20668;-81
2021/06/13 11:18:15;;;;;;;3.30;1.87;;;36.20;31.20;;;;;;5068018;28;21224;-81
2021/06/13 11:21:04;;;;;;;8.63;2.60;;;36.00;31.30;;;;;;5068731;28;20584;-81
2021/06/13 11:23:30;;;;;;;3.80;1.93;;;35.90;31.70;;;;;;5044510;28;20590;-81
2021/06/13 11:26:04;;;;;;;4.60;1.83;;;35.80;32.40;;;;;;5053743;28;21157;-78
2021/06/13 11:28:37;;;;;;;7.90;1.47;;;35.80;31.90;;;;;;5082296;28;20582;-78
2021/06/13 11:31:09;;;;;;;4.57;2.23;;;35.80;32.60;;;;;;5065380;28;20613;-78
2021/06/13 11:33:48;;;;;;;2.83;2.50;;;35.70;31.90;;;;;;5066847;28;21033;-78
2021/06/13 11:36:24;;;;;;;3.07;2.37;;;35.60;32.30;;;;;;5066713;28;20588;-78
2021/06/13 11:39:13;;;;;;;4.00;2.30;;;35.40;33.20;;;;;;5064382;28;20592;-78
2021/06/13 11:41:44;;;;;;;4.63;2.40;;;35.40;33.10;;;;;;5064151;28;20634;-77
2021/06/13 11:44:21;;;;;;;4.63;2.37;;;35.20;32.60;;;;;;5047559;28;20565;-78
2021/06/13 11:46:49;;;;;;;8.80;2.13;;;35.10;32.50;;;;;;5083057;28;20583;-78
2021/06/13 11:49:38;;;;;;;3.83;2.07;;;35.00;32.90;;;;;;5063956;28;20577;-78
2021/06/13 11:52:10;;;;;;;3.70;1.77;;;34.80;32.50;;;;;;5064758;28;20608;-78
2021/06/13 11:54:40;;;;;;;4.47;2.20;;;34.60;32.80;;;;;;5066156;28;20629;-77
2021/06/13 11:57:15;;;;;;;2.53;1.80;;;34.40;32.70;;;;;;5062913;28;20919;-78
2021/06/13 11:59:46;;;;;;;4.40;1.77;;;34.10;32.60;;;;;;5063902;28;20626;-78
2021/06/13 12:02:22;;;;;;;5.60;2.70;;;33.90;32.70;;;;;;5090152;28;20667;-77
2021/06/13 12:04:48;;;;;;;4.10;1.90;;;33.70;33.40;;;;;;5058496;28;20572;-78
2021/06/13 12:07:16;;;;;;;3.80;1.60;;;33.70;33.20;;;;;;5075310;28;20576;-78
2021/06/13 12:09:46;;;;;;;4.93;2.20;;;33.50;33.20;;;;;;5076568;28;20566;-77
2021/06/13 12:12:28;;;;;;;;;;;;;;;;;;;;;
2021/06/13 12:14:59;;;;;;;3.50;2.13;;;33.20;33.50;;;;;;5050204;28;20641;-78
2021/06/13 12:17:27;;;;;;;3.30;1.47;;;33.00;33.60;;;;;;5083054;28;21178;-79
2021/06/13 12:20:02;;;;;;;4.10;2.23;;;32.90;33.80;;;;;;5047527;28;20579;-78
2021/06/13 12:22:49;;;;;;;4.60;2.30;;;32.70;33.80;;;;;;5043157;28;20631;-78
2021/06/13 12:27:50;;;;;;;3.13;1.93;;;32.30;34.30;;;;;;5061166;28;20936;-79
2021/06/13 12:30:21;;;;;;;5.43;2.17;;;32.10;34.40;;;;;;5081256;28;20681;-78
2021/06/13 12:33:06;;;;;;;3.80;1.60;;;31.80;34.20;;;;;;5057759;28;20945;-79
2021/06/13 12:35:36;;;;;;;3.30;1.47;;;31.50;34.10;;;;;;5066947;28;20575;-78
2021/06/13 12:38:25;;;;;;;4.80;1.90;;;31.20;34.10;;;;;;5086526;28;20605;-79
2021/06/13 12:40:58;;;;;;;3.87;1.93;;;30.90;34.50;;;;;;5092552;28;20628;-79
2021/06/13 12:43:33;;;;;;;2.97;1.50;;;30.60;34.70;;;;;;5074755;28;20577;-78
2021/06/13 12:46:01;;;;;;;3.87;1.80;;;30.30;34.40;;;;;;5095000;28;20585;-79
2021/06/13 12:48:33;;;;;;;2.90;1.93;;;30.00;34.30;;;;;;5074396;28;20564;-79
2021/06/13 12:51:00;;;;;;;4.73;2.13;;;29.60;34.20;;;;;;5092494;28;21401;-78
2021/06/13 12:53:34;;;;;;;2.90;1.20;;;29.30;34.30;;;;;;5074284;28;20564;-78
2021/06/13 12:56:01;;;;;;;4.83;2.13;;;28.90;34.80;;;;;;5092438;28;20619;-77
2021/06/13 12:58:34;;;;;;;3.30;2.20;;;28.60;35.20;;;;;;5091908;28;20658;-78
2021/06/13 13:01:09;;;;;;;3.70;2.03;;;28.40;35.70;;;;;;5092050;28;20619;-79
2021/06/13 13:03:50;;;;;;;3.70;2.00;;;28.10;35.70;;;;;;5057203;28;20578;-79
2021/06/13 13:06:16;;;;;;;7.00;2.30;;;28.00;37.00;;;;;;5092179;28;20598;-77
2021/06/13 13:08:43;;;;;;;5.00;2.20;;;27.80;36.50;;;;;;5091620;28;20616;-77